PAF152 RPLB-RPVI
Flight info
| Callsign | PAF152 |
|---|---|
| Flight time | 0h 52m |
| Altitude | 36000 |
| Route | SUMI2A SUMIX B591 LUBAN W3 BEDER BEDE1S |
| Aircraft | B764/H-SDE3FGHIM3RWXY/LB1 |
Departure
| Time | 2026-05-06 04:20 |
|---|---|
| Airport | Subic Bay International Airport / Naval Air Station Cubi Point (RPLB) |
Arrival
| Time | 2026-05-06 05:12 |
|---|---|
| Airport | Iloilo International Airport (RPVI) |
| Time | Latitude | Longitude | Altitude | Speed | Heading |
|---|---|---|---|---|---|
| 2026-05-06 03:59 | 14.79602 | 120.28243 | 71 ft | 0 kts | 157° |
| 2026-05-06 04:14 | 14.79614 | 120.28238 | 71 ft | 2 kts | 157° |
| 2026-05-06 04:15 | 14.79628 | 120.28232 | 71 ft | 2 kts | 157° |
| 2026-05-06 04:15 | 14.79642 | 120.28226 | 71 ft | 2 kts | 157° |
| 2026-05-06 04:15 | 14.79656 | 120.28222 | 71 ft | 2 kts | 191° |
| 2026-05-06 04:15 | 14.79669 | 120.28229 | 71 ft | 2 kts | 228° |
| 2026-05-06 04:16 | 14.79674 | 120.28239 | 71 ft | 0 kts | 248° |
| 2026-05-06 04:18 | 14.79656 | 120.28193 | 71 ft | 15 kts | 249° |
| 2026-05-06 04:18 | 14.79671 | 120.28052 | 71 ft | 26 kts | 252° |
| 2026-05-06 04:18 | 14.79005 | 120.26417 | 70 ft | 31 kts | 247° |
| 2026-05-06 04:19 | 14.78947 | 120.26057 | 70 ft | 22 kts | 307° |
| 2026-05-06 04:19 | 14.79014 | 120.26064 | 70 ft | 9 kts | 51° |
| 2026-05-06 04:19 | 14.79041 | 120.26135 | 70 ft | 15 kts | 71° |
| 2026-05-06 04:19 | 14.79120 | 120.26332 | 70 ft | 57 kts | 68° |
| 2026-05-06 04:20 | 14.79368 | 120.26949 | 71 ft | 126 kts | 67° |
| 2026-05-06 04:20 | 14.79776 | 120.27949 | 237 ft | 170 kts | 69° |
| 2026-05-06 04:20 | 14.80350 | 120.29051 | 975 ft | 182 kts | 49° |
| 2026-05-06 04:20 | 14.81509 | 120.29755 | 1441 ft | 216 kts | 15° |
| 2026-05-06 04:21 | 14.83117 | 120.29645 | 1999 ft | 249 kts | 341° |
| 2026-05-06 04:21 | 14.84557 | 120.28584 | 2811 ft | 273 kts | 310° |
| 2026-05-06 04:21 | 14.85364 | 120.26788 | 3956 ft | 285 kts | 280° |
| 2026-05-06 04:21 | 14.85249 | 120.24782 | 5215 ft | 288 kts | 252° |
| 2026-05-06 04:22 | 14.84269 | 120.23035 | 6404 ft | 292 kts | 224° |
| 2026-05-06 04:22 | 14.82624 | 120.21892 | 7684 ft | 284 kts | 201° |
| 2026-05-06 04:22 | 14.80695 | 120.21475 | 8200 ft | 291 kts | 176° |
| 2026-05-06 04:23 | 14.76711 | 120.22275 | 9609 ft | 296 kts | 176° |
| 2026-05-06 04:23 | 14.74652 | 120.22120 | 10299 ft | 301 kts | 185° |
| 2026-05-06 04:23 | 14.72505 | 120.21875 | 10346 ft | 330 kts | 185° |
| 2026-05-06 04:23 | 14.70109 | 120.21588 | 10394 ft | 359 kts | 186° |
| 2026-05-06 04:24 | 14.67558 | 120.21272 | 10928 ft | 372 kts | 186° |
| 2026-05-06 04:24 | 14.64970 | 120.20944 | 11731 ft | 377 kts | 186° |
| 2026-05-06 04:24 | 14.62350 | 120.20615 | 12595 ft | 382 kts | 186° |
| 2026-05-06 04:24 | 14.59714 | 120.20278 | 13441 ft | 386 kts | 186° |
| 2026-05-06 04:25 | 14.57026 | 120.19933 | 14303 ft | 394 kts | 186° |
| 2026-05-06 04:25 | 14.54288 | 120.19580 | 15453 ft | 397 kts | 186° |
| 2026-05-06 04:25 | 14.51550 | 120.19227 | 16470 ft | 403 kts | 186° |
| 2026-05-06 04:25 | 14.48781 | 120.18870 | 17480 ft | 408 kts | 186° |
| 2026-05-06 04:26 | 14.45954 | 120.18505 | 18500 ft | 415 kts | 186° |
| 2026-05-06 04:26 | 14.43066 | 120.18133 | 19475 ft | 421 kts | 186° |
| 2026-05-06 04:26 | 14.40149 | 120.17757 | 20400 ft | 427 kts | 186° |
| 2026-05-06 04:26 | 14.37198 | 120.17376 | 21277 ft | 433 kts | 187° |
| 2026-05-06 04:27 | 14.34222 | 120.16992 | 22080 ft | 439 kts | 187° |
| 2026-05-06 04:27 | 14.31187 | 120.16602 | 22887 ft | 444 kts | 187° |
| 2026-05-06 04:27 | 14.28122 | 120.16206 | 23610 ft | 450 kts | 187° |
| 2026-05-06 04:27 | 14.24988 | 120.15802 | 24416 ft | 454 kts | 187° |
| 2026-05-06 04:28 | 14.21843 | 120.15397 | 25107 ft | 459 kts | 187° |
| 2026-05-06 04:28 | 14.18684 | 120.14990 | 25762 ft | 464 kts | 187° |
| 2026-05-06 04:28 | 14.15423 | 120.14571 | 26427 ft | 469 kts | 187° |
| 2026-05-06 04:28 | 14.12166 | 120.14151 | 27027 ft | 474 kts | 187° |
| 2026-05-06 04:29 | 14.08884 | 120.13729 | 27610 ft | 478 kts | 187° |
| 2026-05-06 04:29 | 14.05564 | 120.13303 | 28207 ft | 482 kts | 187° |
| 2026-05-06 04:29 | 14.02249 | 120.12876 | 28739 ft | 486 kts | 187° |
| 2026-05-06 04:29 | 13.98868 | 120.12442 | 29314 ft | 489 kts | 187° |
| 2026-05-06 04:30 | 13.95478 | 120.12007 | 30050 ft | 488 kts | 187° |
| 2026-05-06 04:30 | 13.92104 | 120.11603 | 30980 ft | 483 kts | 185° |
| 2026-05-06 04:30 | 13.88747 | 120.11601 | 31701 ft | 482 kts | 176° |
| 2026-05-06 04:30 | 13.85455 | 120.12139 | 32397 ft | 481 kts | 167° |
| 2026-05-06 04:31 | 13.82260 | 120.13210 | 33103 ft | 481 kts | 158° |
| 2026-05-06 04:31 | 13.79296 | 120.14750 | 33825 ft | 480 kts | 150° |
| 2026-05-06 04:31 | 13.76408 | 120.16501 | 34568 ft | 478 kts | 150° |
| 2026-05-06 04:31 | 13.73591 | 120.18224 | 35023 ft | 476 kts | 150° |
| 2026-05-06 04:32 | 13.70739 | 120.19990 | 34975 ft | 474 kts | 149° |
| 2026-05-06 04:32 | 13.65132 | 120.23491 | 34982 ft | 472 kts | 149° |
| 2026-05-06 04:33 | 13.59479 | 120.27039 | 34971 ft | 474 kts | 149° |
| 2026-05-06 04:33 | 13.53851 | 120.30576 | 34970 ft | 473 kts | 149° |
| 2026-05-06 04:34 | 13.48220 | 120.34116 | 34970 ft | 473 kts | 149° |
| 2026-05-06 04:34 | 13.42604 | 120.37646 | 34977 ft | 474 kts | 149° |
| 2026-05-06 04:35 | 13.36992 | 120.41172 | 34975 ft | 473 kts | 149° |
| 2026-05-06 04:35 | 13.31354 | 120.44712 | 34969 ft | 473 kts | 149° |
| 2026-05-06 04:36 | 13.25737 | 120.48237 | 34960 ft | 473 kts | 149° |
| 2026-05-06 04:36 | 13.20117 | 120.51763 | 34958 ft | 473 kts | 149° |
| 2026-05-06 04:37 | 13.14485 | 120.55295 | 34957 ft | 474 kts | 149° |
| 2026-05-06 04:37 | 13.08836 | 120.58834 | 34966 ft | 473 kts | 149° |
| 2026-05-06 04:38 | 13.03212 | 120.62357 | 34964 ft | 473 kts | 149° |
| 2026-05-06 04:38 | 12.97615 | 120.65859 | 34961 ft | 473 kts | 149° |
| 2026-05-06 04:39 | 12.91986 | 120.69382 | 34963 ft | 473 kts | 149° |
| 2026-05-06 04:39 | 12.86359 | 120.72900 | 34962 ft | 472 kts | 149° |
| 2026-05-06 04:40 | 12.80750 | 120.76405 | 34962 ft | 472 kts | 149° |
| 2026-05-06 04:40 | 12.75132 | 120.79914 | 34977 ft | 472 kts | 149° |
| 2026-05-06 04:41 | 12.69548 | 120.83400 | 34985 ft | 472 kts | 149° |
| 2026-05-06 04:41 | 12.63922 | 120.86910 | 34990 ft | 472 kts | 149° |
| 2026-05-06 04:42 | 12.58306 | 120.90411 | 34980 ft | 472 kts | 149° |
| 2026-05-06 04:42 | 12.52664 | 120.93928 | 34971 ft | 472 kts | 149° |
| 2026-05-06 04:43 | 12.47039 | 120.97432 | 34963 ft | 472 kts | 149° |
| 2026-05-06 04:43 | 12.41463 | 121.00904 | 34961 ft | 471 kts | 149° |
| 2026-05-06 04:44 | 12.35924 | 121.04565 | 34964 ft | 472 kts | 141° |
| 2026-05-06 04:44 | 12.31083 | 121.09064 | 34973 ft | 473 kts | 137° |
| 2026-05-06 04:45 | 12.26264 | 121.13644 | 34967 ft | 473 kts | 137° |
| 2026-05-06 04:45 | 12.21465 | 121.18224 | 34971 ft | 473 kts | 137° |
| 2026-05-06 04:46 | 12.16656 | 121.22818 | 34968 ft | 473 kts | 137° |
| 2026-05-06 04:46 | 12.11859 | 121.27401 | 34961 ft | 472 kts | 137° |
| 2026-05-06 04:47 | 12.07028 | 121.32014 | 34959 ft | 472 kts | 137° |
| 2026-05-06 04:47 | 12.02235 | 121.36590 | 34953 ft | 473 kts | 137° |
| 2026-05-06 04:48 | 11.97407 | 121.41196 | 34947 ft | 473 kts | 137° |
| 2026-05-06 04:48 | 11.92589 | 121.45790 | 34451 ft | 480 kts | 137° |
| 2026-05-06 04:48 | 11.90183 | 121.48084 | 34370 ft | 469 kts | 137° |
| 2026-05-06 04:49 | 11.87820 | 121.50337 | 33528 ft | 470 kts | 137° |
| 2026-05-06 04:49 | 11.85416 | 121.52628 | 32682 ft | 470 kts | 137° |
| 2026-05-06 04:49 | 11.83028 | 121.54902 | 31899 ft | 469 kts | 137° |
| 2026-05-06 04:49 | 11.80661 | 121.57156 | 31131 ft | 469 kts | 137° |
| 2026-05-06 04:50 | 11.78264 | 121.59438 | 30351 ft | 468 kts | 137° |
| 2026-05-06 04:50 | 11.75884 | 121.61704 | 29583 ft | 470 kts | 137° |
| 2026-05-06 04:50 | 11.73502 | 121.63971 | 28820 ft | 469 kts | 137° |
| 2026-05-06 04:50 | 11.71129 | 121.66228 | 28074 ft | 467 kts | 137° |
| 2026-05-06 04:51 | 11.68800 | 121.68444 | 27484 ft | 461 kts | 137° |
| 2026-05-06 04:51 | 11.66481 | 121.70650 | 26878 ft | 456 kts | 137° |
| 2026-05-06 04:51 | 11.64166 | 121.72850 | 26172 ft | 453 kts | 137° |
| 2026-05-06 04:51 | 11.61893 | 121.75010 | 25529 ft | 449 kts | 136° |
| 2026-05-06 04:52 | 11.59596 | 121.77193 | 24873 ft | 445 kts | 136° |
| 2026-05-06 04:52 | 11.57359 | 121.79318 | 24230 ft | 441 kts | 136° |
| 2026-05-06 04:52 | 11.55115 | 121.81450 | 23578 ft | 437 kts | 136° |
| 2026-05-06 04:52 | 11.52907 | 121.83546 | 22929 ft | 433 kts | 136° |
| 2026-05-06 04:53 | 11.50729 | 121.85614 | 22248 ft | 430 kts | 136° |
| 2026-05-06 04:53 | 11.48550 | 121.87683 | 21708 ft | 424 kts | 136° |
| 2026-05-06 04:53 | 11.46406 | 121.89719 | 21093 ft | 420 kts | 136° |
| 2026-05-06 04:53 | 11.44293 | 121.91724 | 20551 ft | 414 kts | 136° |
| 2026-05-06 04:54 | 11.42219 | 121.93694 | 20015 ft | 409 kts | 136° |
| 2026-05-06 04:54 | 11.40155 | 121.95652 | 19480 ft | 404 kts | 136° |
| 2026-05-06 04:54 | 11.38104 | 121.97600 | 18948 ft | 400 kts | 136° |
| 2026-05-06 04:54 | 11.36067 | 121.99531 | 18421 ft | 395 kts | 136° |
| 2026-05-06 04:55 | 11.34069 | 122.01424 | 17910 ft | 390 kts | 136° |
| 2026-05-06 04:55 | 11.32099 | 122.03292 | 17414 ft | 386 kts | 136° |
| 2026-05-06 04:55 | 11.30140 | 122.05148 | 16922 ft | 382 kts | 136° |
| 2026-05-06 04:55 | 11.28194 | 122.06994 | 16436 ft | 379 kts | 136° |
| 2026-05-06 04:56 | 11.26276 | 122.08810 | 15939 ft | 375 kts | 136° |
| 2026-05-06 04:56 | 11.24367 | 122.10619 | 15444 ft | 372 kts | 136° |
| 2026-05-06 04:56 | 11.22484 | 122.12401 | 14949 ft | 370 kts | 136° |
| 2026-05-06 04:56 | 11.20633 | 122.14153 | 14459 ft | 368 kts | 136° |
| 2026-05-06 04:57 | 11.18755 | 122.15931 | 13950 ft | 365 kts | 136° |
| 2026-05-06 04:57 | 11.16888 | 122.17699 | 13444 ft | 362 kts | 135° |
| 2026-05-06 04:57 | 11.15057 | 122.19431 | 12940 ft | 359 kts | 135° |
| 2026-05-06 04:57 | 11.13248 | 122.21143 | 12431 ft | 356 kts | 135° |
| 2026-05-06 04:58 | 11.11457 | 122.22837 | 12266 ft | 342 kts | 136° |
| 2026-05-06 04:58 | 11.09737 | 122.24464 | 12274 ft | 324 kts | 135° |
| 2026-05-06 04:58 | 11.08124 | 122.25990 | 12273 ft | 308 kts | 135° |
| 2026-05-06 04:58 | 11.06588 | 122.27442 | 12277 ft | 303 kts | 135° |
| 2026-05-06 04:59 | 11.05032 | 122.28908 | 12140 ft | 306 kts | 135° |
| 2026-05-06 04:59 | 11.03453 | 122.30391 | 11677 ft | 309 kts | 136° |
| 2026-05-06 04:59 | 11.01856 | 122.31890 | 11150 ft | 313 kts | 136° |
| 2026-05-06 04:59 | 11.00255 | 122.33392 | 10569 ft | 318 kts | 136° |
| 2026-05-06 05:00 | 10.98624 | 122.34923 | 9978 ft | 322 kts | 136° |
| 2026-05-06 05:00 | 10.96974 | 122.36470 | 9684 ft | 314 kts | 136° |
| 2026-05-06 05:00 | 10.95324 | 122.37827 | 9500 ft | 305 kts | 147° |
| 2026-05-06 05:00 | 10.93346 | 122.38613 | 9324 ft | 298 kts | 167° |
| 2026-05-06 05:01 | 10.91268 | 122.38701 | 8914 ft | 302 kts | 185° |
| 2026-05-06 05:01 | 10.89179 | 122.38279 | 8463 ft | 305 kts | 191° |
| 2026-05-06 05:01 | 10.87122 | 122.37794 | 7965 ft | 305 kts | 191° |
| 2026-05-06 05:01 | 10.85047 | 122.37273 | 7470 ft | 301 kts | 192° |
| 2026-05-06 05:02 | 10.83041 | 122.36753 | 7020 ft | 295 kts | 192° |
| 2026-05-06 05:02 | 10.81069 | 122.36231 | 6644 ft | 288 kts | 192° |
| 2026-05-06 05:02 | 10.79160 | 122.35721 | 6352 ft | 279 kts | 192° |
| 2026-05-06 05:02 | 10.77292 | 122.35220 | 6091 ft | 276 kts | 192° |
| 2026-05-06 05:03 | 10.74777 | 122.34542 | 5816 ft | 277 kts | 192° |
| 2026-05-06 05:03 | 10.73536 | 122.34208 | 5585 ft | 278 kts | 192° |
| 2026-05-06 05:03 | 10.71651 | 122.33699 | 5164 ft | 282 kts | 192° |
| 2026-05-06 05:03 | 10.71108 | 122.33552 | 5029 ft | 284 kts | 193° |
| 2026-05-06 05:06 | 10.69553 | 122.33210 | 4640 ft | 286 kts | 182° |
| 2026-05-06 05:06 | 10.67593 | 122.33475 | 4165 ft | 284 kts | 156° |
| 2026-05-06 05:06 | 10.65969 | 122.34569 | 3676 ft | 280 kts | 130° |
| 2026-05-06 05:06 | 10.65001 | 122.36217 | 3240 ft | 263 kts | 108° |
| 2026-05-06 05:07 | 10.64392 | 122.37870 | 3149 ft | 247 kts | 109° |
| 2026-05-06 05:07 | 10.63926 | 122.39514 | 3030 ft | 238 kts | 91° |
| 2026-05-06 05:07 | 10.64163 | 122.40929 | 2876 ft | 230 kts | 64° |
| 2026-05-06 05:07 | 10.65312 | 122.42230 | 2717 ft | 222 kts | 31° |
| 2026-05-06 05:08 | 10.66655 | 122.42896 | 2625 ft | 211 kts | 25° |
| 2026-05-06 05:08 | 10.67992 | 122.43501 | 2454 ft | 204 kts | 24° |
| 2026-05-06 05:08 | 10.69278 | 122.44039 | 2416 ft | 191 kts | 23° |
| 2026-05-06 05:08 | 10.70455 | 122.44511 | 2441 ft | 171 kts | 22° |
| 2026-05-06 05:09 | 10.71537 | 122.44936 | 2356 ft | 166 kts | 21° |
| 2026-05-06 05:09 | 10.72632 | 122.45358 | 2210 ft | 164 kts | 21° |
| 2026-05-06 05:09 | 10.73656 | 122.45745 | 1949 ft | 149 kts | 20° |
| 2026-05-06 05:09 | 10.74590 | 122.46098 | 1703 ft | 137 kts | 20° |
| 2026-05-06 05:10 | 10.75454 | 122.46422 | 1507 ft | 132 kts | 20° |
| 2026-05-06 05:10 | 10.76329 | 122.46747 | 1348 ft | 133 kts | 20° |
| 2026-05-06 05:10 | 10.77206 | 122.47073 | 1193 ft | 136 kts | 20° |
| 2026-05-06 05:10 | 10.78099 | 122.47405 | 1008 ft | 136 kts | 19° |
| 2026-05-06 05:11 | 10.79002 | 122.47740 | 822 ft | 135 kts | 18° |
| 2026-05-06 05:11 | 10.79888 | 122.48070 | 636 ft | 135 kts | 18° |
| 2026-05-06 05:11 | 10.80775 | 122.48397 | 451 ft | 135 kts | 18° |
| 2026-05-06 05:11 | 10.81644 | 122.48725 | 291 ft | 133 kts | 18° |
| 2026-05-06 05:12 | 10.82517 | 122.49049 | 199 ft | 130 kts | 18° |
| 2026-05-06 05:12 | 10.83317 | 122.49342 | 179 ft | 111 kts | 18° |
| 2026-05-06 05:12 | 10.83825 | 122.49530 | 179 ft | 40 kts | 20° |
| 2026-05-06 05:12 | 10.84030 | 122.49606 | 178 ft | 9 kts | 20° |
| 2026-05-06 05:13 | 10.84250 | 122.49689 | 178 ft | 10 kts | 25° |
| 2026-05-06 05:13 | 10.84329 | 122.49738 | 178 ft | 8 kts | 349° |
| 2026-05-06 05:13 | 10.84331 | 122.49707 | 178 ft | 7 kts | 211° |
| 2026-05-06 05:13 | 10.84227 | 122.49679 | 178 ft | 23 kts | 195° |
| 2026-05-06 05:14 | 10.83577 | 122.49463 | 178 ft | 15 kts | 143° |
| 2026-05-06 05:14 | 10.83484 | 122.49662 | 178 ft | 16 kts | 135° |
| 2026-05-06 05:14 | 10.83376 | 122.49657 | 178 ft | 16 kts | 201° |
| 2026-05-06 05:14 | 10.83267 | 122.49613 | 178 ft | 17 kts | 200° |
| 2026-05-06 05:15 | 10.83166 | 122.49577 | 178 ft | 9 kts | 194° |
| 2026-05-06 05:15 | 10.83130 | 122.49599 | 178 ft | 6 kts | 106° |
| 2026-05-06 05:15 | 10.83116 | 122.49641 | 178 ft | 0 kts | 109° |